createdAt,value
2018-10-16T00:00:14.205Z,57.81
2018-10-16T00:02:43.124Z,57.74
2018-10-16T00:05:12.045Z,57.43
2018-10-16T00:07:41.224Z,57.96
2018-10-16T00:10:10.407Z,58.02
2018-10-16T00:12:39.812Z,58.41
2018-10-16T00:15:09.846Z,59.12
2018-10-16T00:17:38.329Z,58.59
2018-10-16T00:20:08.153Z,58.70
2018-10-16T00:22:37.360Z,58.31
2018-10-16T00:25:09.913Z,58.38
2018-10-16T00:27:38.616Z,58.37
2018-10-16T00:30:08.029Z,59.16
2018-10-16T00:32:39.816Z,59.44
2018-10-16T00:35:08.356Z,59.30
2018-10-16T00:37:37.170Z,59.76
2018-10-16T00:40:06.194Z,59.91
2018-10-16T00:42:34.843Z,59.59
2018-10-16T00:45:03.610Z,59.67
2018-10-16T00:47:32.798Z,59.97
2018-10-16T00:50:01.704Z,60.26
2018-10-16T00:52:30.872Z,59.71
2018-10-16T00:54:59.343Z,60.41
2018-10-16T00:57:28.042Z,60.49
2018-10-16T00:59:56.993Z,60.18
2018-10-16T01:02:25.576Z,60.21
2018-10-16T01:04:54.076Z,60.57
2018-10-16T01:07:22.546Z,60.20
2018-10-16T01:09:51.233Z,60.79
2018-10-16T01:12:19.721Z,60.99
2018-10-16T01:14:48.977Z,60.79
2018-10-16T01:17:17.522Z,60.89
2018-10-16T01:19:46.124Z,61.48
2018-10-16T01:22:14.955Z,61.18
2018-10-16T01:24:43.498Z,60.81
2018-10-16T01:27:12.048Z,61.78
2018-10-16T01:29:40.680Z,61.26
2018-10-16T01:32:09.162Z,61.69
2018-10-16T01:34:37.802Z,61.30
2018-10-16T01:37:06.365Z,61.86
2018-10-16T01:39:34.961Z,61.93
2018-10-16T01:42:04.287Z,61.69
2018-10-16T01:44:32.897Z,61.68
2018-10-16T01:47:01.706Z,61.77
2018-10-16T01:49:30.869Z,61.77
2018-10-16T01:51:59.391Z,61.89
2018-10-16T01:54:28.467Z,61.48
2018-10-16T01:56:57.630Z,62.24
2018-10-16T01:59:26.561Z,62.07
2018-10-16T02:01:55.078Z,62.19
2018-10-16T02:04:24.617Z,62.19
2018-10-16T02:06:53.331Z,62.02
2018-10-16T02:09:22.901Z,62.56
2018-10-16T02:11:51.397Z,62.47
2018-10-16T02:14:19.925Z,62.56
2018-10-16T02:16:48.962Z,62.07
2018-10-16T02:19:17.570Z,62.32
2018-10-16T02:21:46.060Z,61.95
2018-10-16T02:24:14.516Z,61.51
2018-10-16T02:26:43.393Z,62.31
2018-10-16T02:29:12.169Z,62.08
2018-10-16T02:31:41.381Z,62.55
2018-10-16T02:34:10.341Z,61.79
2018-10-16T02:36:39.770Z,61.79
2018-10-16T02:39:09.791Z,62.38
2018-10-16T02:41:38.524Z,61.88
2018-10-16T02:44:07.918Z,62.00
2018-10-16T02:46:36.504Z,62.27
2018-10-16T02:49:05.754Z,62.97
2018-10-16T02:51:34.203Z,62.40
2018-10-16T02:54:02.712Z,62.14
2018-10-16T02:56:31.396Z,62.91
2018-10-16T02:59:00.180Z,62.93
2018-10-16T03:01:28.661Z,62.38
2018-10-16T03:03:57.405Z,62.98
2018-10-16T03:06:25.962Z,62.46
2018-10-16T03:08:54.417Z,62.93
2018-10-16T03:11:23.470Z,62.57
2018-10-16T03:13:52.029Z,63.33
2018-10-16T03:16:20.583Z,63.42
2018-10-16T03:18:49.059Z,62.78
2018-10-16T03:21:17.645Z,63.93
2018-10-16T03:23:46.249Z,63.21
2018-10-16T03:26:14.739Z,63.61
2018-10-16T03:28:43.587Z,63.50
2018-10-16T03:31:12.153Z,63.60
2018-10-16T03:33:40.788Z,63.41
2018-10-16T03:36:09.301Z,63.56
2018-10-16T03:38:37.748Z,63.35
2018-10-16T03:41:06.286Z,63.60
2018-10-16T03:43:37.901Z,64.04
2018-10-16T03:46:07.607Z,64.14
2018-10-16T03:48:36.368Z,63.82
2018-10-16T03:51:05.634Z,64.18
2018-10-16T03:53:34.286Z,64.45
2018-10-16T03:56:02.974Z,64.35
2018-10-16T03:58:31.598Z,64.73
2018-10-16T04:01:00.045Z,64.33
2018-10-16T04:03:29.241Z,64.32
2018-10-16T04:05:58.458Z,64.80
2018-10-16T04:08:27.084Z,64.47
2018-10-16T04:10:55.554Z,65.07
2018-10-16T04:13:24.202Z,65.16
2018-10-16T04:15:52.652Z,64.65
2018-10-16T04:18:21.276Z,64.71
2018-10-16T04:20:50.057Z,65.12
2018-10-16T04:23:18.491Z,65.26
2018-10-16T04:25:47.793Z,64.60
2018-10-16T04:28:16.271Z,64.73
2018-10-16T04:30:44.833Z,64.87
2018-10-16T04:33:13.480Z,65.18
2018-10-16T04:35:41.900Z,65.25
2018-10-16T04:38:11.007Z,64.96
2018-10-16T04:40:39.967Z,64.76
2018-10-16T04:43:08.468Z,64.82
2018-10-16T04:45:37.208Z,65.11
2018-10-16T04:48:06.893Z,64.22
2018-10-16T04:50:35.409Z,64.35
2018-10-16T04:53:04.720Z,64.97
2018-10-16T04:55:33.185Z,65.16
2018-10-16T04:58:02.049Z,65.17
2018-10-16T05:00:30.727Z,64.77
2018-10-16T05:03:00.499Z,64.29
2018-10-16T05:05:29.068Z,65.24
2018-10-16T05:07:57.686Z,64.54
2018-10-16T05:10:33.037Z,64.85
2018-10-16T05:13:02.476Z,65.31
2018-10-16T05:15:32.081Z,64.90
2018-10-16T05:18:00.525Z,64.86
2018-10-16T05:20:29.092Z,64.90
2018-10-16T05:22:59.557Z,65.03
2018-10-16T05:25:29.317Z,65.32
2018-10-16T05:27:58.339Z,65.13
2018-10-16T05:30:27.395Z,65.71
2018-10-16T05:32:56.967Z,65.20
2018-10-16T05:35:25.415Z,65.20
2018-10-16T05:37:53.925Z,65.37
2018-10-16T05:40:22.382Z,65.90
2018-10-16T05:42:51.588Z,65.61
2018-10-16T05:45:20.111Z,65.37
2018-10-16T05:47:48.727Z,66.04
2018-10-16T05:50:17.531Z,65.97
2018-10-16T05:52:47.116Z,65.91
2018-10-16T05:55:16.614Z,65.79
2018-10-16T05:57:45.242Z,66.45
2018-10-16T06:00:24.942Z,66.09
2018-10-16T06:02:54.284Z,66.15
2018-10-16T06:05:22.834Z,66.12
2018-10-16T06:07:51.430Z,66.28
2018-10-16T06:10:19.957Z,65.92
2018-10-16T06:12:48.593Z,65.67
2018-10-16T06:15:17.102Z,65.95
2018-10-16T06:17:46.122Z,66.69
2018-10-16T06:20:14.779Z,66.43
2018-10-16T06:22:43.654Z,66.17
2018-10-16T06:25:12.453Z,65.89
2018-10-16T06:27:42.447Z,66.33
2018-10-16T06:30:12.269Z,66.45
2018-10-16T06:32:41.188Z,66.10
2018-10-16T06:35:10.812Z,66.68
2018-10-16T06:37:40.212Z,66.18
2018-10-16T06:40:10.185Z,65.91
2018-10-16T06:42:39.512Z,65.76
2018-10-16T06:45:09.285Z,65.95
2018-10-16T06:47:38.449Z,65.68
2018-10-16T06:50:08.875Z,65.20
2018-10-16T06:52:37.393Z,65.71
2018-10-16T06:55:07.091Z,65.68
2018-10-16T06:57:36.137Z,65.31
2018-10-16T07:00:05.588Z,65.45
2018-10-16T07:02:34.852Z,65.34
2018-10-16T07:05:03.381Z,65.46
2018-10-16T07:07:32.823Z,65.68
2018-10-16T07:10:01.405Z,65.34
2018-10-16T07:12:29.886Z,64.86
2018-10-16T07:14:58.626Z,65.36
2018-10-16T07:17:27.162Z,65.13
2018-10-16T07:19:55.708Z,65.07
2018-10-16T07:22:24.561Z,64.58
2018-10-16T07:24:53.083Z,65.02
2018-10-16T07:27:21.764Z,64.61
2018-10-16T07:29:50.618Z,64.43
2018-10-16T07:32:19.686Z,64.42
2018-10-16T07:34:48.814Z,64.39
2018-10-16T07:37:17.447Z,63.29
2018-10-16T07:39:46.078Z,63.50
2018-10-16T07:42:14.556Z,63.94
2018-10-16T07:44:43.152Z,63.17
2018-10-16T07:47:11.738Z,63.67
2018-10-16T07:49:40.905Z,63.38
2018-10-16T07:52:09.777Z,63.36
2018-10-16T07:54:38.445Z,62.97
2018-10-16T07:57:07.595Z,62.99
2018-10-16T07:59:37.724Z,62.38
2018-10-16T08:02:06.453Z,62.67
2018-10-16T08:04:35.601Z,62.88
2018-10-16T08:07:04.133Z,62.90
2018-10-16T08:09:32.869Z,63.36
2018-10-16T08:12:01.323Z,63.38
2018-10-16T08:14:29.912Z,62.80
2018-10-16T08:16:59.200Z,63.09
2018-10-16T08:19:27.698Z,62.98
2018-10-16T08:21:56.265Z,62.95
2018-10-16T08:24:24.827Z,62.93
2018-10-16T08:26:53.839Z,62.84
2018-10-16T08:29:22.404Z,62.77
2018-10-16T08:31:50.948Z,62.62
2018-10-16T08:34:19.670Z,61.94
2018-10-16T08:36:48.888Z,62.14
2018-10-16T08:39:22.055Z,62.01
2018-10-16T08:44:04.454Z,61.98
2018-10-16T08:46:44.442Z,60.77
2018-10-16T08:49:24.373Z,61.84
2018-10-16T08:51:54.398Z,62.10
2018-10-16T08:54:23.838Z,61.08
2018-10-16T08:57:00.534Z,61.12
2018-10-16T08:59:29.825Z,60.70
2018-10-16T09:02:05.191Z,60.25
2018-10-16T09:04:33.712Z,59.91
2018-10-16T09:07:02.427Z,58.95
2018-10-16T09:09:30.998Z,59.17
2018-10-16T09:12:00.311Z,58.37
2018-10-16T09:14:28.984Z,58.35
2018-10-16T09:16:57.583Z,58.10
2018-10-16T09:19:26.866Z,57.80
2018-10-16T09:21:55.647Z,57.35
2018-10-16T09:24:24.374Z,56.82
2018-10-16T09:26:52.823Z,56.82
2018-10-16T09:29:22.238Z,56.33
2018-10-16T09:31:50.897Z,55.93
2018-10-16T09:34:19.476Z,55.03
2018-10-16T09:36:48.825Z,55.04
2018-10-16T09:39:17.361Z,54.82
2018-10-16T09:41:45.831Z,54.92
2018-10-16T09:44:14.325Z,54.03
2018-10-16T09:46:43.801Z,54.28
2018-10-16T09:49:12.366Z,53.42
2018-10-16T09:51:40.851Z,53.30
2018-10-16T09:54:09.308Z,53.00
2018-10-16T09:56:38.145Z,54.03
2018-10-16T09:59:07.086Z,52.96
2018-10-16T10:01:40.794Z,53.00
2018-10-16T10:04:09.251Z,53.31
2018-10-16T10:06:37.888Z,52.67
2018-10-16T10:09:09.423Z,52.60
2018-10-16T10:11:38.160Z,53.08
2018-10-16T10:14:07.281Z,52.92
2018-10-16T10:16:36.527Z,53.75
2018-10-16T10:19:05.683Z,51.80
2018-10-16T10:21:34.173Z,51.59
2018-10-16T10:24:02.905Z,52.12
2018-10-16T10:26:32.349Z,51.65
2018-10-16T10:29:00.961Z,51.42
2018-10-16T10:31:30.025Z,52.00
2018-10-16T10:33:58.962Z,51.15
2018-10-16T10:36:27.771Z,50.56
2018-10-16T10:38:56.396Z,50.48
2018-10-16T10:41:24.973Z,50.30
2018-10-16T10:43:54.178Z,49.25
2018-10-16T10:46:22.771Z,49.22
2018-10-16T10:48:52.434Z,49.25
2018-10-16T10:51:21.242Z,49.16
2018-10-16T10:53:50.177Z,50.54
2018-10-16T10:56:18.660Z,49.72
2018-10-16T10:58:47.131Z,49.63
2018-10-16T11:01:15.853Z,48.34
2018-10-16T11:03:44.355Z,48.73
2018-10-16T11:06:13.053Z,46.91
2018-10-16T11:08:41.743Z,45.92
2018-10-16T11:11:10.173Z,45.35
2018-10-16T11:13:38.790Z,46.07
2018-10-16T11:16:07.347Z,46.08
2018-10-16T11:18:35.969Z,45.30
2018-10-16T11:21:04.696Z,44.06
2018-10-16T11:23:33.291Z,44.68
2018-10-16T11:26:01.733Z,43.26
2018-10-16T11:28:30.765Z,41.88
2018-10-16T11:30:59.200Z,40.88
2018-10-16T11:33:27.749Z,40.44
2018-10-16T11:35:56.251Z,40.75
2018-10-16T11:38:24.993Z,39.73
2018-10-16T11:40:53.806Z,39.83
2018-10-16T11:43:22.860Z,39.35
2018-10-16T11:45:51.530Z,38.73
2018-10-16T11:48:19.898Z,38.16
2018-10-16T11:50:48.452Z,37.27
2018-10-16T11:53:17.139Z,37.36
2018-10-16T11:55:45.581Z,37.34
2018-10-16T11:58:14.821Z,37.50
2018-10-16T12:00:43.461Z,38.49
2018-10-16T12:03:12.009Z,38.82
2018-10-16T12:05:40.870Z,38.50
2018-10-16T12:08:09.558Z,38.34
2018-10-16T12:10:37.973Z,39.09
2018-10-16T12:13:06.567Z,38.72
2018-10-16T12:15:35.078Z,40.10
2018-10-16T12:18:08.791Z,39.75
2018-10-16T12:20:44.692Z,39.14
2018-10-16T12:23:13.209Z,39.00
2018-10-16T12:25:41.917Z,38.11
2018-10-16T12:28:10.337Z,38.62
2018-10-16T12:30:38.932Z,38.10
2018-10-16T12:33:07.634Z,38.08
2018-10-16T12:35:36.413Z,39.27
2018-10-16T12:38:05.129Z,39.84
2018-10-16T12:40:33.929Z,40.39
2018-10-16T12:43:03.502Z,41.34
2018-10-16T12:45:32.930Z,41.01
2018-10-16T12:48:01.541Z,40.85
2018-10-16T12:50:30.032Z,40.50
2018-10-16T12:52:59.262Z,41.79
2018-10-16T12:55:27.737Z,40.10
2018-10-16T12:57:56.265Z,42.11
2018-10-16T13:00:24.934Z,41.00
2018-10-16T13:02:54.027Z,41.60
2018-10-16T13:05:22.486Z,39.99
2018-10-16T13:07:50.980Z,41.46
2018-10-16T13:10:19.871Z,40.22
2018-10-16T13:12:48.384Z,41.00
2018-10-16T13:15:17.674Z,39.97
2018-10-16T13:17:46.233Z,39.95
2018-10-16T13:20:15.869Z,40.36
2018-10-16T13:22:46.284Z,39.35
2018-10-16T13:25:15.917Z,39.42
2018-10-16T13:27:44.947Z,38.90
2018-10-16T13:30:15.731Z,38.73
2018-10-16T13:32:44.831Z,38.40
2018-10-16T13:35:15.128Z,38.16
2018-10-16T13:37:44.162Z,37.94
2018-10-16T13:40:12.985Z,37.97
2018-10-16T13:42:41.701Z,36.87
2018-10-16T13:45:13.567Z,36.61
2018-10-16T13:47:42.127Z,35.69
2018-10-16T13:50:12.555Z,35.47
2018-10-16T13:52:41.177Z,35.21
2018-10-16T13:55:10.477Z,32.59
2018-10-16T13:57:39.029Z,31.38
2018-10-16T14:00:12.906Z,30.98
2018-10-16T14:02:42.486Z,30.45
2018-10-16T14:05:11.219Z,32.29
2018-10-16T14:07:40.327Z,32.25
2018-10-16T14:10:10.815Z,32.78
2018-10-16T14:12:40.785Z,33.94
2018-10-16T14:15:09.877Z,34.91
2018-10-16T14:17:38.645Z,33.83
2018-10-16T14:20:08.200Z,34.49
2018-10-16T14:22:38.264Z,34.63
2018-10-16T14:25:07.917Z,34.63
2018-10-16T14:27:37.080Z,34.48
2018-10-16T14:30:06.939Z,34.31
2018-10-16T14:32:35.704Z,34.73
2018-10-16T14:35:04.409Z,34.68
2018-10-16T14:37:32.856Z,35.82
2018-10-16T14:40:01.590Z,36.25
2018-10-16T14:42:30.018Z,35.82
2018-10-16T14:44:59.136Z,35.15
2018-10-16T14:47:28.126Z,35.02
2018-10-16T14:49:56.780Z,34.68
2018-10-16T14:52:25.361Z,34.65
2018-10-16T14:54:53.943Z,35.05
2018-10-16T14:57:22.421Z,35.11
2018-10-16T14:59:50.913Z,35.15
2018-10-16T15:02:19.600Z,36.17
2018-10-16T15:04:48.286Z,36.15
2018-10-16T15:07:16.812Z,36.05
2018-10-16T15:09:45.332Z,36.04
2018-10-16T15:12:13.746Z,36.98
2018-10-16T15:14:42.341Z,36.98
2018-10-16T15:17:11.136Z,36.32
2018-10-16T15:19:39.850Z,37.54
2018-10-16T15:22:08.651Z,37.34
2018-10-16T15:24:37.189Z,38.59
2018-10-16T15:27:06.329Z,38.78
2018-10-16T15:29:34.939Z,38.91
2018-10-16T15:32:04.052Z,39.21
2018-10-16T15:34:32.580Z,39.84
2018-10-16T15:37:00.984Z,40.31
2018-10-16T15:39:29.596Z,39.92
2018-10-16T15:41:58.097Z,39.36
2018-10-16T15:44:26.841Z,40.91
2018-10-16T15:46:55.419Z,41.03
2018-10-16T15:49:24.430Z,39.87
2018-10-16T15:51:53.321Z,40.34
2018-10-16T15:54:22.043Z,41.32
2018-10-16T15:56:51.055Z,41.65
2018-10-16T15:59:19.586Z,41.29
2018-10-16T16:01:48.135Z,42.24
2018-10-16T16:04:16.808Z,42.44
2018-10-16T16:06:45.359Z,43.15
2018-10-16T16:09:13.940Z,42.96
2018-10-16T16:11:43.495Z,42.60
2018-10-16T16:14:12.742Z,43.04
2018-10-16T16:16:41.312Z,43.57
2018-10-16T16:19:09.871Z,43.42
2018-10-16T16:21:38.500Z,43.32
2018-10-16T16:24:07.053Z,44.02
2018-10-16T16:26:35.643Z,43.51
2018-10-16T16:29:04.704Z,43.91
2018-10-16T16:31:34.221Z,44.64
2018-10-16T16:34:02.798Z,44.01
2018-10-16T16:36:31.398Z,45.29
2018-10-16T16:38:59.938Z,44.71
2018-10-16T16:41:29.441Z,45.75
2018-10-16T16:43:58.312Z,45.26
2018-10-16T16:46:26.801Z,45.75
2018-10-16T16:48:55.288Z,45.87
2018-10-16T16:51:24.127Z,45.44
2018-10-16T16:53:52.588Z,46.02
2018-10-16T16:56:21.858Z,45.32
2018-10-16T16:58:50.892Z,45.65
2018-10-16T17:01:19.378Z,45.91
2018-10-16T17:03:47.816Z,46.81
2018-10-16T17:06:16.645Z,46.12
2018-10-16T17:08:45.502Z,47.44
2018-10-16T17:11:14.127Z,47.69
2018-10-16T17:13:43.697Z,47.16
2018-10-16T17:16:12.280Z,48.26
2018-10-16T17:18:40.817Z,47.44
2018-10-16T17:21:09.281Z,48.33
2018-10-16T17:23:38.050Z,48.11
2018-10-16T17:26:07.259Z,48.96
2018-10-16T17:28:35.742Z,48.83
2018-10-16T17:31:04.245Z,48.77
2018-10-16T17:33:33.010Z,49.87
2018-10-16T17:36:01.759Z,49.83
2018-10-16T17:38:30.818Z,50.04
2018-10-16T17:40:59.521Z,49.73
2018-10-16T17:43:34.566Z,50.47
2018-10-16T17:46:03.391Z,49.95
2018-10-16T17:48:32.693Z,50.17
2018-10-16T17:51:01.296Z,50.51
2018-10-16T17:53:30.532Z,51.40
2018-10-16T17:55:59.853Z,51.59
2018-10-16T17:58:28.588Z,51.81
2018-10-16T18:00:57.246Z,51.78
2018-10-16T18:03:25.729Z,51.73
2018-10-16T18:05:54.193Z,52.20
2018-10-16T18:08:23.888Z,51.90
2018-10-16T18:10:52.425Z,51.57
2018-10-16T18:13:21.036Z,52.62
2018-10-16T18:15:49.725Z,52.58
2018-10-16T18:18:18.780Z,52.31
2018-10-16T18:20:47.462Z,52.94
2018-10-16T18:23:16.018Z,52.99
2018-10-16T18:25:44.557Z,52.71
2018-10-16T18:28:13.331Z,53.01
2018-10-16T18:30:41.806Z,53.19
2018-10-16T18:33:10.523Z,52.94
2018-10-16T18:35:39.163Z,53.02
2018-10-16T18:38:07.751Z,53.49
2018-10-16T18:40:36.340Z,53.73
2018-10-16T18:43:04.945Z,52.92
2018-10-16T18:45:33.644Z,53.93
2018-10-16T18:48:02.396Z,53.78
2018-10-16T18:50:31.272Z,53.19
2018-10-16T18:52:59.711Z,53.51
2018-10-16T18:55:28.589Z,53.17
2018-10-16T18:57:57.175Z,53.73
2018-10-16T19:00:25.681Z,53.92
2018-10-16T19:02:54.376Z,53.66
2018-10-16T19:05:23.156Z,53.45
2018-10-16T19:07:52.169Z,53.34
2018-10-16T19:10:20.851Z,54.00
2018-10-16T19:12:49.434Z,53.46
2018-10-16T19:15:18.508Z,53.72
2018-10-16T19:17:47.417Z,53.78
2018-10-16T19:20:16.923Z,53.55
2018-10-16T19:22:46.278Z,54.08
2018-10-16T19:25:18.621Z,54.05
2018-10-16T19:27:48.063Z,54.08
2018-10-16T19:30:16.588Z,54.63
2018-10-16T19:32:45.301Z,54.77
2018-10-16T19:35:15.176Z,54.62
2018-10-16T19:37:43.853Z,54.16
2018-10-16T19:40:12.860Z,55.06
2018-10-16T19:42:41.457Z,54.99
2018-10-16T19:45:10.924Z,55.18
2018-10-16T19:47:40.091Z,55.59
2018-10-16T19:50:09.376Z,55.36
2018-10-16T19:52:38.115Z,55.69
2018-10-16T19:55:06.917Z,56.00
2018-10-16T19:57:35.558Z,55.30
2018-10-16T20:00:04.510Z,55.29
2018-10-16T20:02:33.007Z,55.61
2018-10-16T20:05:01.864Z,55.91
2018-10-16T20:07:30.758Z,55.50
2018-10-16T20:09:59.274Z,55.80
2018-10-16T20:12:27.904Z,55.80
2018-10-16T20:14:56.476Z,55.72
2018-10-16T20:17:25.487Z,55.94
2018-10-16T20:19:54.040Z,56.23
2018-10-16T20:22:22.810Z,55.66
2018-10-16T20:24:51.565Z,56.51
2018-10-16T20:27:20.235Z,56.81
2018-10-16T20:29:48.892Z,56.30
2018-10-16T20:32:17.770Z,56.80
2018-10-16T20:34:46.563Z,56.94
2018-10-16T20:37:15.830Z,56.50
2018-10-16T20:39:45.211Z,56.86
2018-10-16T20:42:13.772Z,56.52
2018-10-16T20:44:42.302Z,56.60
2018-10-16T20:47:10.990Z,56.99
2018-10-16T20:49:40.689Z,56.69
2018-10-16T20:52:09.275Z,56.92
2018-10-16T20:54:44.696Z,56.78
2018-10-16T20:57:13.795Z,57.66
2018-10-16T20:59:43.789Z,57.37
2018-10-16T21:02:12.585Z,56.83
2018-10-16T21:04:41.906Z,56.98
2018-10-16T21:07:11.485Z,57.76
2018-10-16T21:09:41.065Z,57.48
2018-10-16T21:12:10.285Z,57.33
2018-10-16T21:14:38.868Z,56.45
2018-10-16T21:17:07.467Z,57.60
2018-10-16T21:19:35.952Z,57.57
2018-10-16T21:22:04.762Z,57.69
2018-10-16T21:24:40.190Z,56.98
2018-10-16T21:27:10.305Z,57.46
2018-10-16T21:29:38.936Z,57.52
2018-10-16T21:32:09.141Z,57.96
2018-10-16T21:34:38.017Z,57.95
2018-10-16T21:37:07.124Z,57.58
2018-10-16T21:39:36.207Z,57.36
2018-10-16T21:42:05.092Z,57.57
2018-10-16T21:44:33.788Z,58.86
2018-10-16T21:47:02.300Z,58.66
2018-10-16T21:49:30.973Z,59.41
2018-10-16T21:51:59.495Z,59.19
2018-10-16T21:54:28.109Z,58.86
2018-10-16T21:56:56.681Z,59.58
2018-10-16T21:59:26.195Z,58.87
2018-10-16T22:02:00.632Z,59.28
2018-10-16T22:04:29.093Z,59.02
2018-10-16T22:06:57.762Z,59.72
2018-10-16T22:09:26.325Z,59.43
2018-10-16T22:11:55.013Z,58.88
2018-10-16T22:14:23.506Z,59.70
2018-10-16T22:16:52.137Z,59.12
2018-10-16T22:19:20.617Z,59.52
2018-10-16T22:21:49.184Z,59.23
2018-10-16T22:24:18.413Z,59.57
2018-10-16T22:26:47.834Z,59.07
2018-10-16T22:29:16.984Z,59.36
2018-10-16T22:31:45.552Z,58.92
2018-10-16T22:34:14.057Z,60.00
2018-10-16T22:36:42.629Z,59.98
2018-10-16T22:39:11.795Z,60.14
2018-10-16T22:41:40.476Z,59.50
2018-10-16T22:44:09.584Z,60.30
2018-10-16T22:46:38.305Z,60.41
2018-10-16T22:49:07.359Z,60.96
2018-10-16T22:51:35.987Z,60.49
2018-10-16T22:54:04.565Z,60.77
2018-10-16T22:56:33.032Z,60.37
2018-10-16T22:59:01.873Z,60.51
2018-10-16T23:01:30.503Z,60.08
2018-10-16T23:03:59.848Z,61.02
2018-10-16T23:06:28.313Z,60.07
2018-10-16T23:08:56.780Z,60.68
2018-10-16T23:11:25.405Z,60.72
2018-10-16T23:13:53.997Z,60.21
2018-10-16T23:16:22.761Z,60.42
2018-10-16T23:18:51.269Z,61.25
2018-10-16T23:21:19.737Z,61.41
2018-10-16T23:23:48.217Z,60.67
2018-10-16T23:26:16.984Z,60.52
2018-10-16T23:28:45.455Z,60.58
2018-10-16T23:31:14.079Z,60.37
2018-10-16T23:33:42.641Z,61.22
2018-10-16T23:36:11.199Z,60.84
2018-10-16T23:38:40.351Z,61.14
2018-10-16T23:41:09.304Z,60.84
2018-10-16T23:43:37.922Z,60.40
2018-10-16T23:46:06.929Z,60.93
2018-10-16T23:48:36.009Z,60.73
2018-10-16T23:51:04.528Z,60.83
2018-10-16T23:53:33.161Z,61.72
2018-10-16T23:56:01.680Z,61.42
2018-10-16T23:58:30.421Z,61.54
